Aérodrome :
LOGIN :

S'inscrire | Disclaimer

   EN    FR    IT 

 










Légende :    VFR   VFR Marginal   IFR   IFR Intensif   IFR Très Intensif
Visi : 
Plafond : 
>= 8 km
>= 3000ft
5 à 8 km
1000 à 3000 ft
1500m à 5 km
500 à 1000 ft
800 à 1500m
200 à 500 ft
< 800m
< 200 ft
Symboles :   Orages  Brouillard  Fortes neiges  Fortes précipitations  Vent > 20 kt
SIGMETs :   Divers  Orages  Givrage  Turbulence  Onde Orograph.  Cendres Volcan.







- Altitude de l'aérodrome : 219 ft
- Code IATA : DNR
- Voir les cartes d'approche


LFRD - Dinard

DERNIER METAR :
  • 222000Z AUTO 23010KT 200V260 9999 BKN040 BKN049 BKN056 16/11 Q1012 TEMPO 24015G25KT 4000 SHRA BKN015TCU

METARs EXPIRÉS :
  • 221930Z AUTO 24010KT 9999 BKN048 BKN060 BKN076 16/11 Q1011 TEMPO 24015G25KT 4000 SHRA BKN015TCU
  • 221900Z AUTO 24007KT CAVOK 16/11 Q1011 TEMPO 24015G30KT 4000 SHRA BKN020CB
  • 221830Z AUTO 24011KT 210V270 9999 FEW047 BKN064 OVC076 17/11 Q1011 TEMPO 24015G30KT 4000 SHRA BKN020CB
  • 221800Z AUTO 23013KT 9999 FEW046 BKN064 BKN074 17/11 Q1011 TEMPO 24015G30KT 4000 SHRA BKN020CB
  • 221730Z AUTO 23013KT 200V260 CAVOK 18/11 Q1010 TEMPO 24015G30KT 4000 SHRA BKN020CB

TAF TAF LFRD
Valide du 22 à 18h jusqu'au 23 à 18h UTC


221700Z 2218/2318 24010KT 9999 BKN030
TEMPO 2218/2221 24015G30KT 4000 SHRA BKN020CB
PROB30
TEMPO 2221/2306 24015G25KT 5000 SHRA BKN015TCU
PROB30
TEMPO 2310/2314 5000 RA
BECMG 2314/2316 VRB05KT 5000 RA BKN015
TEMPO 2316/2318 3000 RA BKN008
ATIS : +33 2 99 16 81 50
Pas de NOTAMs connus pour ce terrain.



MET'MAP, la Météo Aéronautique d'un coup d'oeil ! - Copyright ORBIFLY Décembre 2007 - Disclaimer

ORBIFLY MET'MAP TEAM :

Programmation & Développement : Alexandra Zaïnal
Conception & Développement : Baudouin d'Aumeries
Co-Programmation & Développement : Marc-Olivier Méhu
Soutien technique & logistique : Manuel Goepfert

Contact : metmap@orbifly.com




SOURCES & CREDITS :

   NOAA